Wednesday, December 12, 2018, 10:55 PM EST
Back to Local

KCON, Concord, Concord Municipal Airport

Location: Concord, NH, United States Lat: 43.195
Local Time: 10:55 PM EST ( 3:55 GMT) Lon: -71.501
Time Zone: US/Eastern Elev: 344 ft

Show me the last for .
Show Decoded

2018-12-12 21:51 METAR KCON 130251Z AUTO 35006KT 10SM CLR M09/M15 A3028 RMK AO2 SLP260 T10941150
                 51014 =
2018-12-12 20:51 METAR KCON 130151Z AUTO 35003KT 10SM CLR M08/M15 A3028 RMK AO2 SLP258 T10831150
                 =
2018-12-12 19:51 METAR KCON 130051Z AUTO 33006KT 10SM CLR M07/M15 A3026 RMK AO2 SLP255 T10721150
                 =
2018-12-12 18:51 METAR KCON 122351Z AUTO 35005KT 10SM CLR M07/M15 A3024 RMK AO2 SLP247 T10671150
                 10000 21067 53037 =
2018-12-12 17:51 METAR KCON 122251Z AUTO 34008KT 10SM CLR M05/M14 A3020 RMK AO2 SLP231 T10501144
                 =
2018-12-12 16:51 METAR KCON 122151Z AUTO 31011KT 10SM CLR M05/M14 A3016 RMK AO2 SLP218 T10501144
                 =
2018-12-12 15:51 METAR KCON 122051Z AUTO 32010KT 10SM CLR M03/M14 A3013 RMK AO2 SLP209 T10281139
                 53031 =
2018-12-12 14:51 METAR KCON 121951Z AUTO 32013G21KT 10SM CLR M01/M14 A3010 RMK AO2 SLP199
                 T10111139 =
2018-12-12 13:51 METAR KCON 121851Z AUTO 30016G20KT 10SM FEW046 M01/M12 A3007 RMK AO2 PK WND
                 31026/1758 SLP188 T10111122 =
2018-12-12 12:51 METAR KCON 121751Z AUTO 33017G23KT 10SM CLR 00/M10 A3004 RMK AO2 PK WND
                 33029/1657 SLP178 T00001100 10011 21078 53005 =
2018-12-12 11:51 METAR KCON 121651Z AUTO 33015G21KT 10SM SCT045 00/M11 A3002 RMK AO2 SLP171
                 T00001106 =
2018-12-12 10:51 METAR KCON 121551Z AUTO 31010G17KT 10SM CLR M01/M09 A3003 RMK AO2 SLP174
                 T10061089 =
2018-12-12 09:51 METAR KCON 121451Z AUTO 33012G19KT 10SM CLR M01/M08 A3002 RMK AO2 SLP173
                 T10111078 53021 =
2018-12-12 08:51 METAR KCON 121351Z AUTO 31011KT 10SM OVC070 M02/M07 A3000 RMK AO2 SLP164
                 T10171072 =
2018-12-12 07:51 METAR KCON 121251Z AUTO 00000KT 10SM BKN070 M08/M09 A2998 RMK AO2 SLP158
                 T10781094 =
2018-12-12 06:51 METAR KCON 121151Z AUTO 00000KT 10SM OVC075 M07/M09 A2996 RMK AO2 SLP152
                 T10721089 11061 21094 53018 =
2018-12-12 05:51 METAR KCON 121051Z AUTO 00000KT 10SM OVC075 M06/M09 A2994 RMK AO2 SLP143
                 T10611094 =
2018-12-12 04:51 METAR KCON 120951Z AUTO 00000KT 10SM FEW055 OVC080 M06/M09 A2992 RMK AO2 SLP137
                 T10611094 =
2018-12-12 03:51 METAR KCON 120851Z AUTO 00000KT 10SM OVC080 M08/M10 A2991 RMK AO2 SLP133
                 T10781100 51005 =
2018-12-12 02:51 METAR KCON 120751Z AUTO 00000KT 10SM CLR M09/M11 A2991 RMK AO2 SLP132 T10891111
                 =
2018-12-12 01:51 METAR KCON 120651Z AUTO 34004KT 10SM FEW120 M07/M11 A2990 RMK AO2 SLP130
                 T10721106 =
2018-12-12 00:51 METAR KCON 120551Z AUTO 31006KT 10SM CLR M07/M10 A2989 RMK AO2 SLP127 T10671100
                 11044 21067 56016 =
2018-12-11 23:51 METAR KCON 120451Z AUTO 30003KT 10SM FEW055 SCT120 M07/M10 A2990 RMK AO2 SLP129
                 T10671100 400001150 =

Support USWX by starting your Amazon purchase here.